Bei Facebook empfehlenBei Twitter postenGoogle plusPinterest

Das Wetter im Erzgebirge am 24.03.2015

Wetter und Klima am 24.03.2015 Holzhau im Erzgebirge (630m ü.NN)
Letzte gemessene Temperatur und Uhrzeit der Messung23:45:00 Uhr0.10 °C
Temperatur (Maximum / Höchstwert) und Uhrzeit der Messung14:45:00 Uhr11.90 °C
Temperatur (Minimum / Tiefstwert) und Uhrzeit der Messung04:30:00-2.60 °C
Errechneter Absolutwert der Temperaturschwankungen zwischen Tmin und Tmax des Tages14.50 K
Errechnete Tagesmitteltemperatur4.65104 °C
Gesamt - Niederschlag des Tages (in flüssiger Form)0.00 Liter / m²
Luftdruck (Maximum / Höchstwert) und Zeitpunkt der Messung00:00:00 Uhr1009.80 hPa
Luftdruck (Minimum / Tiefstwert) und Zeitpunkt der Messung15:45:00 Uhr1005.60 hPa
Errechneter Absolutwert der Luftdruckschwankungen des Tages4.20 hPa
Höchste gemessene Windgeschwindigkeit und Uhrzeit der Messung10:30:00 Uhr14.40 km/h
Errechnete Windhäufigkeit in Relation zu den Messwerten des Tages5.20833 %
Niedrigste Windkühle (Windchill) und Zeitpunkt der Messung04:30:00 Uhr-2.60 °C
Taupunkt (Maximum / Höchstwert) und Uhrzeit der Messung15:45:00 Uhr3.80 °C
Taupunkt (Minimum / Tiefstwert) und Uhrzeit der Messung02:15:00-5.00 °C
Anzahl der automatisch eingelesenen Messwerte 96

Detaillierte Wetter- und Klima- Messwerte für den 24.03.2015 in Holzhau im Erzgebirge (630m ü.NN)
ZeitTemperaturLuftdruckRel. LuftfeuchteWindWindrichtungWindchillTaupunktNiederschlag l/m²
23:45:000.10 °C1007.10 hPa87.00 %-1.80 °C 
23:30:000.20 °C1007.00 hPa87.00 %-1.70 °C 
23:15:000.40 °C1007.10 hPa86.00 %-1.70 °C 
23:00:000.70 °C1007.20 hPa85.00 %-1.50 °C 
22:45:001.10 °C1007.10 hPa85.00 %-1.10 °C 
22:30:001.30 °C1007.10 hPa83.00 %-1.30 °C 
22:15:002.10 °C1007.20 hPa83.00 %-0.50 °C 
22:00:002.80 °C1007.30 hPa81.00 %-0.10 °C 
21:45:003.70 °C1007.40 hPa80.00 %0.60 °C 
21:30:004.50 °C1007.10 hPa80.00 %1.40 °C 
21:15:004.60 °C1007.30 hPa80.00 %1.50 °C 
21:00:004.80 °C1007.30 hPa80.00 %1.60 °C 
20:45:005.00 °C1007.20 hPa79.00 %1.70 °C 
20:30:005.30 °C1007.40 hPa79.00 %2.00 °C 
20:15:005.40 °C1007.30 hPa80.00 %2.20 °C 
20:00:005.40 °C1007.20 hPa80.00 %2.20 °C 
19:45:005.10 °C1007.20 hPa78.00 %1.60 °C 
19:30:004.90 °C1007.00 hPa76.00 %1.00 °C 
19:15:005.10 °C1006.90 hPa76.00 %1.20 °C 
19:00:005.20 °C1006.60 hPa74.00 %1.00 °C 
18:45:005.70 °C1006.30 hPa72.00 %1.10 °C 
18:30:007.00 °C1006.30 hPa69.00 %1.70 °C 
18:15:007.90 °C1006.20 hPa68.00 %2.40 °C 
18:00:008.30 °C1006.40 hPa66.00 %2.30 °C 
17:45:008.60 °C1006.30 hPa64.00 %2.20 °C 
17:30:008.90 °C1006.20 hPa63.00 %2.30 °C 
17:15:009.10 °C1006.10 hPa62.00 %2.20 °C 
17:00:009.60 °C1006.10 hPa61.00 %2.50 °C 
16:45:009.90 °C1005.90 hPa60.00 %2.50 °C 
16:30:0010.40 °C1006.00 hPa60.00 %3.00 °C 
16:15:0010.80 °C1005.80 hPa58.00 %2.90 °C 
16:00:0011.40 °C1005.70 hPa57.00 %3.20 °C 
15:45:0011.50 °C1005.60 hPa59.00 %3.80 °C 
15:30:0010.80 °C1005.80 hPa58.00 %2.90 °C 
15:15:0010.90 °C1006.20 hPa58.00 %3.00 °C 
15:00:0011.30 °C1006.30 hPa56.00 %2.90 °C 
14:45:0011.90 °C1006.50 hPa57.00 %3.70 °C 
14:30:0011.70 °C1006.80 hPa57.00 %3.24 km/hS11.70 °C3.50 °C 
14:15:0011.90 °C1006.80 hPa56.00 %3.40 °C 
14:00:0011.90 °C1006.90 hPa56.00 %3.40 °C 
13:45:0011.60 °C1007.00 hPa55.00 %11.52 km/hSSW10.30 °C2.90 °C 
13:30:0011.80 °C1006.90 hPa56.00 %3.30 °C 
13:15:0011.40 °C1007.00 hPa56.00 %2.90 °C 
13:00:0011.30 °C1007.00 hPa58.00 %3.30 °C 
12:45:0011.00 °C1007.10 hPa59.00 %3.30 °C 
12:30:0010.90 °C1007.00 hPa60.00 %11.52 km/hSSW9.50 °C3.50 °C 
12:15:0010.80 °C1007.00 hPa60.00 %3.40 °C 
12:00:0010.60 °C1007.00 hPa61.00 %3.40 °C 
11:45:0010.40 °C1007.00 hPa62.00 %3.40 °C 
11:30:0010.10 °C1006.90 hPa63.00 %3.40 °C 
11:15:009.60 °C1006.90 hPa64.00 %3.10 °C 
11:00:009.30 °C1007.20 hPa65.00 %8.64 km/hSSO8.10 °C3.10 °C 
10:45:008.80 °C1007.10 hPa66.00 %2.80 °C 
10:30:009.00 °C1007.00 hPa66.00 %14.40 km/hWSW6.80 °C3.00 °C 
10:15:008.90 °C1006.80 hPa66.00 %2.90 °C 
10:00:008.90 °C1006.80 hPa66.00 %2.90 °C 
09:45:008.30 °C1006.90 hPa68.00 %2.80 °C 
09:30:008.10 °C1007.00 hPa67.00 %2.40 °C 
09:15:008.00 °C1006.80 hPa71.00 %3.10 °C 
09:00:007.90 °C1006.90 hPa71.00 %3.00 °C 
08:45:007.60 °C1006.80 hPa76.00 %3.60 °C 
08:30:006.40 °C1006.80 hPa80.00 %3.20 °C 
08:15:004.70 °C1006.60 hPa84.00 %2.20 °C 
08:00:003.40 °C1006.90 hPa85.00 %1.10 °C 
07:45:002.70 °C1006.90 hPa87.00 %0.80 °C 
07:30:002.00 °C1007.00 hPa88.00 %0.20 °C 
07:15:001.60 °C1007.10 hPa89.00 %0.00 °C 
07:00:001.10 °C1007.20 hPa89.00 %-0.50 °C 
06:45:000.50 °C1007.20 hPa89.00 %-1.10 °C 
06:30:000.40 °C1007.20 hPa90.00 %-1.00 °C 
06:15:000.20 °C1007.20 hPa91.00 %-1.10 °C 
06:00:00-0.60 °C1007.10 hPa90.00 %-2.20 °C 
05:45:00-1.40 °C1007.20 hPa90.00 %-3.00 °C 
05:30:00-1.70 °C1007.30 hPa90.00 %-3.30 °C 
05:15:00-2.10 °C1007.40 hPa90.00 %-3.70 °C 
05:00:00-2.50 °C1007.50 hPa89.00 %-4.20 °C 
04:45:00-2.50 °C1007.60 hPa89.00 %-4.20 °C 
04:30:00-2.60 °C1007.60 hPa88.00 %-4.50 °C 
04:15:00-2.60 °C1007.70 hPa88.00 %-4.50 °C 
04:00:00-2.40 °C1007.70 hPa88.00 %-4.30 °C 
03:45:00-1.90 °C1007.80 hPa88.00 %-3.80 °C 
03:30:00-1.60 °C1007.90 hPa88.00 %-3.50 °C 
03:15:00-1.80 °C1008.20 hPa88.00 %-3.70 °C 
03:00:00-2.60 °C1008.20 hPa87.00 %-4.70 °C 
02:45:00-2.40 °C1008.30 hPa87.00 %-4.50 °C 
02:30:00-2.60 °C1008.30 hPa86.00 %-4.90 °C 
02:15:00-2.60 °C1008.40 hPa85.00 %-5.00 °C 
02:00:00-2.20 °C1008.60 hPa85.00 %-4.60 °C 
01:45:00-1.80 °C1008.80 hPa85.00 %-4.20 °C 
01:30:00-1.10 °C1009.00 hPa85.00 %-3.60 °C 
01:15:00-0.70 °C1008.80 hPa86.00 %-3.00 °C 
01:00:00-1.10 °C1009.10 hPa86.00 %-3.40 °C 
00:45:00-1.90 °C1009.20 hPa85.00 %-4.30 °C 
00:30:00-1.80 °C1009.30 hPa84.00 %-4.40 °C 
00:15:00-1.90 °C1009.50 hPa83.00 %-4.70 °C 
00:00:00-1.60 °C1009.80 hPa82.00 %-4.60 °C 

Permanenter Link zu dieser Seite: Wetter im Erzgebirge am 24.03.2015
Performance-Info: Die Erstellung der Seite / Statistik(en) / Tabelle(n) erforderte 5 Datenbankserver-Abfrage(n) und dauerte 98 Millisekunden. (Dieser Messwert ist von der Gesamt-Auslastung des Servers abhängig.)
Erzgebirge - Wetter | Erzgebirge - Wetter (Mobilgeräte) | Komplette Klimadatenbank